Terminal Aerodrome Forecast
Issued by NWS Amarillo, TX

Home | Current Version | Previous Version | Text Only | Print | Product List | Glossary On
Versions: 1 2 3 4 5 6 7 8 9 10 11 12 13 14 15 16 17 18 19
402
FTUS44 KAMA 231930 AAA
TAFDHT
TAF AMD
KDHT 231930Z 2320/2418 05025G32KT P6SM SCT040
     FM232100 05015KT P6SM BKN050
     FM240500 05009KT P6SM VCSH BKN050
     FM241200 12006KT P6SM OVC040=

USA.gov is the U.S. government's official web portal to all federal, state and local government web resources and services.